createdAt,value
2022-12-12T00:01:39.937Z,-0.81
2022-12-12T00:04:08.298Z,-0.80
2022-12-12T00:06:36.867Z,-0.76
2022-12-12T00:09:05.767Z,-0.72
2022-12-12T00:11:34.162Z,-0.69
2022-12-12T00:14:02.653Z,-0.66
2022-12-12T00:16:30.975Z,-0.64
2022-12-12T00:18:59.272Z,-0.64
2022-12-12T00:21:29.337Z,-0.63
2022-12-12T00:23:58.628Z,-0.62
2022-12-12T00:26:33.385Z,-0.64
2022-12-12T00:29:03.101Z,-0.63
2022-12-12T00:31:31.567Z,-0.65
2022-12-12T00:34:00.025Z,-0.62
2022-12-12T00:36:30.151Z,-0.61
2022-12-12T00:38:59.544Z,-0.60
2022-12-12T00:41:28.620Z,-0.60
2022-12-12T00:43:56.919Z,-0.58
2022-12-12T00:46:26.105Z,-0.57
2022-12-12T00:48:58.371Z,-0.61
2022-12-12T00:51:29.251Z,-0.62
2022-12-12T00:53:58.390Z,-0.64
2022-12-12T00:56:29.392Z,-0.67
2022-12-12T00:58:57.642Z,-0.70
2022-12-12T01:01:29.616Z,-0.69
2022-12-12T01:04:00.599Z,-0.69
2022-12-12T01:06:29.289Z,-0.66
2022-12-12T01:08:57.574Z,-0.65
2022-12-12T01:11:26.877Z,-0.69
2022-12-12T01:13:55.922Z,-0.73
2022-12-12T01:16:24.843Z,-0.75
2022-12-12T01:18:53.569Z,-0.75
2022-12-12T01:21:22.386Z,-0.76
2022-12-12T01:23:51.172Z,-0.77
2022-12-12T01:26:22.561Z,-0.75
2022-12-12T01:28:51.645Z,-0.76
2022-12-12T01:31:21.246Z,-0.74
2022-12-12T01:33:49.729Z,-0.75
2022-12-12T01:36:20.767Z,-0.73
2022-12-12T01:38:51.325Z,-0.69
2022-12-12T01:41:22.027Z,-0.70
2022-12-12T01:43:50.718Z,-0.67
2022-12-12T01:46:30.861Z,-0.65
2022-12-12T01:49:22.974Z,-0.70
2022-12-12T01:51:57.252Z,-0.69
2022-12-12T01:54:32.931Z,-0.67
2022-12-12T01:57:05.355Z,-0.65
2022-12-12T01:59:34.718Z,-0.63
2022-12-12T02:02:03.422Z,-0.61
2022-12-12T02:04:31.870Z,-0.59
2022-12-12T02:07:00.205Z,-0.60
2022-12-12T02:09:28.678Z,-0.58
2022-12-12T02:11:59.302Z,-0.59
2022-12-12T02:14:34.259Z,-0.60
2022-12-12T02:17:23.468Z,-0.58
2022-12-12T02:20:21.385Z,-0.62
2022-12-12T02:23:08.936Z,-0.61
2022-12-12T02:25:55.623Z,-0.60
2022-12-12T02:28:45.606Z,-0.59
2022-12-12T02:31:13.948Z,-0.61
2022-12-12T02:33:59.713Z,-0.62
2022-12-12T02:36:44.429Z,-0.67
2022-12-12T02:39:29.659Z,-0.73
2022-12-12T02:42:03.454Z,-0.74
2022-12-12T02:44:35.489Z,-0.72
2022-12-12T02:47:13.193Z,-0.69
2022-12-12T02:50:06.738Z,-0.71
2022-12-12T02:52:35.273Z,-0.73
2022-12-12T02:55:05.218Z,-0.70
2022-12-12T02:57:33.502Z,-0.73
2022-12-12T03:00:06.096Z,-0.75
2022-12-12T03:02:46.058Z,-0.73
2022-12-12T03:06:17.245Z,-0.70
2022-12-12T03:09:00.108Z,-0.68
2022-12-12T03:11:46.551Z,-0.62
2022-12-12T03:14:33.047Z,-0.63
2022-12-12T03:17:10.658Z,-0.61
2022-12-12T03:20:15.253Z,-0.60
2022-12-12T03:22:52.791Z,-0.58
2022-12-12T03:25:31.426Z,-0.57
2022-12-12T03:28:15.086Z,-0.59
2022-12-12T03:30:48.608Z,-0.59
2022-12-12T03:33:21.451Z,-0.61
2022-12-12T03:36:00.093Z,-0.59
2022-12-12T03:38:35.483Z,-0.60
2022-12-12T03:41:07.571Z,-0.66
2022-12-12T03:43:40.549Z,-0.65
2022-12-12T03:46:43.649Z,-0.63
2022-12-12T03:49:21.062Z,-0.64
2022-12-12T03:51:57.391Z,-0.62
2022-12-12T03:54:36.698Z,-0.64
2022-12-12T03:57:24.370Z,-0.66
2022-12-12T04:00:01.898Z,-0.67
2022-12-12T04:03:06.027Z,-0.70
2022-12-12T04:06:20.295Z,-0.71
2022-12-12T04:09:08.009Z,-0.71
2022-12-12T04:12:01.488Z,-0.70
2022-12-12T04:14:50.650Z,-0.71
2022-12-12T04:17:27.811Z,-0.72
2022-12-12T04:20:23.027Z,-0.73
2022-12-12T04:23:16.060Z,-0.74
2022-12-12T04:26:08.603Z,-0.71
2022-12-12T04:28:40.979Z,-0.68
2022-12-12T04:31:11.745Z,-0.72
2022-12-12T04:33:46.534Z,-0.73
2022-12-12T04:36:17.101Z,-0.77
2022-12-12T04:38:50.902Z,-0.75
2022-12-12T04:41:22.275Z,-0.73
2022-12-12T04:43:53.194Z,-0.70
2022-12-12T04:46:23.360Z,-0.73
2022-12-12T04:48:58.785Z,-0.73
2022-12-12T04:51:31.515Z,-0.72
2022-12-12T04:54:31.242Z,-0.73
2022-12-12T04:57:03.934Z,-0.74
2022-12-12T04:59:32.352Z,-0.74
2022-12-12T05:02:45.289Z,-0.74
2022-12-12T05:05:22.858Z,-0.74
2022-12-12T05:07:58.164Z,-0.74
2022-12-12T05:10:26.696Z,-0.76
2022-12-12T05:13:00.253Z,-0.74
2022-12-12T05:15:29.937Z,-0.73
2022-12-12T05:18:05.835Z,-0.72
2022-12-12T05:20:34.437Z,-0.74
2022-12-12T05:23:02.720Z,-0.75
2022-12-12T05:25:31.196Z,-0.77
2022-12-12T05:27:59.503Z,-0.80
2022-12-12T05:30:27.869Z,-0.81
2022-12-12T05:32:56.637Z,-0.81
2022-12-12T05:35:25.295Z,-0.81
2022-12-12T05:37:53.859Z,-0.80
2022-12-12T05:40:22.866Z,-0.83
2022-12-12T05:42:51.621Z,-0.82
2022-12-12T05:45:19.886Z,-0.83
2022-12-12T05:47:48.208Z,-0.83
2022-12-12T05:50:17.546Z,-0.80
2022-12-12T05:52:45.830Z,-0.79
2022-12-12T05:55:14.395Z,-0.78
2022-12-12T05:57:45.098Z,-0.77
2022-12-12T06:00:13.817Z,-0.75
2022-12-12T06:02:42.258Z,-0.70
2022-12-12T06:05:11.242Z,-0.68
2022-12-12T06:07:40.222Z,-0.66
2022-12-12T06:10:09.037Z,-0.67
2022-12-12T06:12:37.369Z,-0.66
2022-12-12T06:15:06.875Z,-0.64
2022-12-12T06:17:37.900Z,-0.62
2022-12-12T06:20:07.218Z,-0.63
2022-12-12T06:22:36.322Z,-0.61
2022-12-12T06:25:04.957Z,-0.61
2022-12-12T06:27:33.226Z,-0.59
2022-12-12T06:30:01.567Z,-0.55
2022-12-12T06:32:29.977Z,-0.56
2022-12-12T06:34:58.228Z,-0.56
2022-12-12T06:37:26.470Z,-0.52
2022-12-12T06:40:04.983Z,-0.49
2022-12-12T06:42:43.220Z,-0.46
2022-12-12T06:45:15.111Z,-0.44
2022-12-12T06:47:43.922Z,-0.41
2022-12-12T06:50:13.073Z,-0.36
2022-12-12T06:52:41.409Z,-0.35
2022-12-12T06:55:09.834Z,-0.33
2022-12-12T06:57:38.112Z,-0.29
2022-12-12T07:00:06.979Z,-0.28
2022-12-12T07:02:35.327Z,-0.25
2022-12-12T07:05:03.853Z,-0.23
2022-12-12T07:07:32.563Z,-0.19
2022-12-12T07:10:00.879Z,-0.18
2022-12-12T07:12:29.191Z,-0.16
2022-12-12T07:14:57.518Z,-0.16
2022-12-12T07:17:25.890Z,-0.14
2022-12-12T07:19:54.241Z,-0.12
2022-12-12T07:22:22.592Z,-0.09
2022-12-12T07:24:52.745Z,-0.08
2022-12-12T07:27:21.976Z,-0.06
2022-12-12T07:29:50.403Z,-0.05
2022-12-12T07:32:18.676Z,-0.06
2022-12-12T07:34:46.915Z,-0.04
2022-12-12T07:37:15.623Z,-0.02
2022-12-12T07:39:44.174Z,-0.01
2022-12-12T07:42:12.540Z,-0.04
2022-12-12T07:44:40.830Z,-0.03
2022-12-12T07:47:09.205Z,-0.01
2022-12-12T07:49:37.917Z,0.00
2022-12-12T07:52:06.150Z,0.00
2022-12-12T07:54:34.427Z,0.02
2022-12-12T07:57:02.706Z,0.05
2022-12-12T07:59:31.047Z,0.09
2022-12-12T08:01:59.355Z,0.13
2022-12-12T08:04:27.786Z,0.18
2022-12-12T08:07:02.788Z,0.19
2022-12-12T08:09:33.737Z,0.18
2022-12-12T08:12:02.010Z,0.18
2022-12-12T08:14:30.388Z,0.21
2022-12-12T08:16:59.246Z,0.19
2022-12-12T08:19:27.539Z,0.16
2022-12-12T08:21:55.849Z,0.15
2022-12-12T08:24:24.323Z,0.11
2022-12-12T08:26:52.903Z,0.08
2022-12-12T08:29:21.147Z,0.12
2022-12-12T08:31:49.784Z,0.15
2022-12-12T08:34:19.316Z,0.20
2022-12-12T08:36:49.190Z,0.21
2022-12-12T08:39:17.590Z,0.24
2022-12-12T08:41:50.754Z,0.25
2022-12-12T08:44:20.515Z,0.28
2022-12-12T08:46:49.297Z,0.33
2022-12-12T08:49:18.114Z,0.38
2022-12-12T08:51:46.432Z,0.42
2022-12-12T08:54:14.820Z,0.48
2022-12-12T08:56:43.191Z,0.51
2022-12-12T08:59:11.439Z,0.54
2022-12-12T09:01:40.758Z,0.57
2022-12-12T09:04:09.376Z,0.61
2022-12-12T09:06:37.600Z,0.65
2022-12-12T09:09:05.873Z,0.67
2022-12-12T09:11:34.080Z,0.71
2022-12-12T09:14:02.390Z,0.77
2022-12-12T09:16:31.148Z,0.82
2022-12-12T09:18:59.547Z,0.85
2022-12-12T09:21:28.326Z,0.89
2022-12-12T09:23:56.685Z,0.96
2022-12-12T09:26:24.957Z,1.05
2022-12-12T09:28:54.459Z,1.13
2022-12-12T09:31:22.986Z,1.21
2022-12-12T09:33:51.499Z,1.28
2022-12-12T09:36:19.799Z,1.37
2022-12-12T09:38:48.126Z,1.46
2022-12-12T09:41:20.141Z,1.53
2022-12-12T09:43:53.272Z,1.63
2022-12-12T09:46:37.768Z,1.70
2022-12-12T09:49:29.796Z,1.71
2022-12-12T09:51:58.961Z,1.66
2022-12-12T09:54:27.684Z,1.65
2022-12-12T09:57:04.990Z,1.66
2022-12-12T10:00:02.262Z,1.68
2022-12-12T10:02:40.189Z,1.66
2022-12-12T10:05:20.876Z,1.63
2022-12-12T10:08:32.790Z,1.58
2022-12-12T10:11:07.261Z,1.53
2022-12-12T10:13:37.396Z,1.53
2022-12-12T10:16:09.822Z,1.49
2022-12-12T10:18:49.105Z,1.40
2022-12-12T10:21:26.238Z,1.34
2022-12-12T10:24:38.141Z,1.29
2022-12-12T10:27:11.952Z,1.17
2022-12-12T10:29:47.770Z,1.09
2022-12-12T10:32:18.972Z,1.01
2022-12-12T10:35:16.918Z,0.97
2022-12-12T10:38:00.514Z,0.92
2022-12-12T10:40:53.131Z,0.88
2022-12-12T10:43:47.477Z,0.83
2022-12-12T10:46:36.733Z,0.82
2022-12-12T10:49:18.331Z,0.89
2022-12-12T10:51:49.540Z,0.96
2022-12-12T10:54:22.738Z,1.04
2022-12-12T10:57:20.249Z,1.12
2022-12-12T10:59:52.133Z,1.13
2022-12-12T11:02:40.595Z,1.14
2022-12-12T11:05:25.391Z,1.16
2022-12-12T11:08:04.305Z,1.22
2022-12-12T11:10:37.877Z,1.26
2022-12-12T11:13:09.290Z,1.28
2022-12-12T11:15:49.870Z,1.34
2022-12-12T11:18:21.564Z,1.42
2022-12-12T11:20:51.592Z,1.42
2022-12-12T11:23:24.131Z,1.38
2022-12-12T11:25:58.413Z,1.34
2022-12-12T11:28:31.595Z,1.29
2022-12-12T11:31:05.137Z,1.25
2022-12-12T11:33:54.793Z,1.26
2022-12-12T11:36:36.680Z,1.29
2022-12-12T11:39:26.112Z,1.33
2022-12-12T11:42:17.908Z,1.35
2022-12-12T11:44:47.183Z,1.38
2022-12-12T11:47:18.546Z,1.41
2022-12-12T11:49:49.235Z,1.38
2022-12-12T11:52:24.158Z,1.36
2022-12-12T11:54:53.973Z,1.34
2022-12-12T11:57:24.957Z,1.34
2022-12-12T11:59:59.256Z,1.29
2022-12-12T12:02:42.758Z,1.20
2022-12-12T12:05:48.554Z,1.14
2022-12-12T12:08:16.868Z,1.09
2022-12-12T12:11:04.118Z,1.11
2022-12-12T12:13:51.269Z,1.10
2022-12-12T12:16:31.817Z,1.07
2022-12-12T12:19:38.195Z,1.05
2022-12-12T12:22:27.417Z,1.01
2022-12-12T12:25:12.180Z,0.94
2022-12-12T12:28:23.867Z,0.88
2022-12-12T12:31:02.453Z,0.88
2022-12-12T12:33:51.984Z,0.89
2022-12-12T12:36:27.197Z,0.85
2022-12-12T12:39:24.317Z,0.78
2022-12-12T12:42:16.471Z,0.74
2022-12-12T12:45:18.142Z,0.70
2022-12-12T12:47:59.174Z,0.65
2022-12-12T12:50:53.940Z,0.62
2022-12-12T12:53:37.557Z,0.60
2022-12-12T12:56:25.113Z,0.61
2022-12-12T12:58:58.797Z,0.60
2022-12-12T13:01:35.182Z,0.57
2022-12-12T13:04:18.725Z,0.56
2022-12-12T13:06:56.366Z,0.55
2022-12-12T13:09:46.460Z,0.58
2022-12-12T13:12:38.670Z,0.59
2022-12-12T13:15:21.005Z,0.61
2022-12-12T13:18:04.744Z,0.61
2022-12-12T13:20:41.604Z,0.63
2022-12-12T13:23:47.901Z,0.66
2022-12-12T13:26:47.534Z,0.69
2022-12-12T13:29:38.104Z,0.71
2022-12-12T13:32:18.747Z,0.69
2022-12-12T13:34:55.515Z,0.69
2022-12-12T13:37:24.468Z,0.71
2022-12-12T13:40:02.153Z,0.75
2022-12-12T13:42:58.138Z,0.75
2022-12-12T13:45:45.181Z,0.72
2022-12-12T13:48:29.282Z,0.67
2022-12-12T13:51:28.213Z,0.66
2022-12-12T13:54:13.153Z,0.66
2022-12-12T13:56:42.912Z,0.68
2022-12-12T13:59:23.476Z,0.70
2022-12-12T14:01:56.920Z,0.69
2022-12-12T14:04:33.077Z,0.65
2022-12-12T14:07:15.305Z,0.64
2022-12-12T14:09:56.479Z,0.64
2022-12-12T14:12:32.014Z,0.67
2022-12-12T14:15:02.811Z,0.63
2022-12-12T14:17:40.092Z,0.60
2022-12-12T14:20:25.943Z,0.56
2022-12-12T14:23:08.839Z,0.50
2022-12-12T14:25:39.100Z,0.47
2022-12-12T14:28:22.637Z,0.42
2022-12-12T14:31:16.395Z,0.36
2022-12-12T14:34:01.966Z,0.32
2022-12-12T14:36:45.137Z,0.30
2022-12-12T14:39:42.822Z,0.27
2022-12-12T14:42:23.198Z,0.24
2022-12-12T14:44:51.553Z,0.22
2022-12-12T14:47:19.902Z,0.19
2022-12-12T14:49:48.237Z,0.16
2022-12-12T14:52:23.817Z,0.15
2022-12-12T14:54:52.559Z,0.09
2022-12-12T14:57:23.333Z,0.08
2022-12-12T14:59:51.674Z,0.04
2022-12-12T15:02:33.355Z,-0.01
2022-12-12T15:05:05.552Z,-0.04
2022-12-12T15:07:38.424Z,-0.06
2022-12-12T15:10:24.967Z,-0.08
2022-12-12T15:12:53.404Z,-0.10
2022-12-12T15:15:32.291Z,-0.07
2022-12-12T15:18:01.531Z,-0.09
2022-12-12T15:20:32.315Z,-0.08
2022-12-12T15:23:04.466Z,-0.08
2022-12-12T15:25:37.253Z,-0.06
2022-12-12T15:28:05.634Z,-0.05
2022-12-12T15:30:42.050Z,-0.02
2022-12-12T15:33:17.434Z,-0.01
2022-12-12T15:36:05.465Z,0.00
2022-12-12T15:38:34.415Z,0.02
2022-12-12T15:41:09.510Z,0.02
2022-12-12T15:43:43.285Z,0.02
2022-12-12T15:46:14.952Z,0.02
2022-12-12T15:48:49.097Z,-0.01
2022-12-12T15:51:24.724Z,-0.06
2022-12-12T15:53:55.637Z,-0.09
2022-12-12T15:56:29.222Z,-0.13
2022-12-12T15:59:07.092Z,-0.18
2022-12-12T16:01:35.625Z,-0.24
2022-12-12T16:04:08.830Z,-0.29
2022-12-12T16:06:43.985Z,-0.37
2022-12-12T16:09:12.244Z,-0.47
2022-12-12T16:11:52.604Z,-0.51
2022-12-12T16:14:42.027Z,-0.59
2022-12-12T16:17:13.853Z,-0.69
2022-12-12T16:19:54.141Z,-0.73
2022-12-12T16:22:36.852Z,-0.81
2022-12-12T16:25:25.801Z,-0.89
2022-12-12T16:27:58.564Z,-0.94
2022-12-12T16:30:28.308Z,-0.99
2022-12-12T16:32:56.896Z,-1.04
2022-12-12T16:35:25.357Z,-1.08
2022-12-12T16:37:53.751Z,-1.14
2022-12-12T16:40:22.541Z,-1.22
2022-12-12T16:43:04.810Z,-1.32
2022-12-12T16:45:36.334Z,-1.44
2022-12-12T16:48:31.432Z,-1.56
2022-12-12T16:51:06.386Z,-1.69
2022-12-12T16:53:36.631Z,-1.75
2022-12-12T16:56:05.266Z,-1.82
2022-12-12T16:58:33.946Z,-1.84
2022-12-12T17:01:02.904Z,-1.88
2022-12-12T17:03:32.927Z,-1.91
2022-12-12T17:06:01.959Z,-1.92
2022-12-12T17:08:30.567Z,-1.94
2022-12-12T17:11:09.556Z,-1.95
2022-12-12T17:13:48.114Z,-1.98
2022-12-12T17:16:16.567Z,-2.04
2022-12-12T17:18:45.151Z,-2.08
2022-12-12T17:34:35.324Z,-1.96
2022-12-12T17:37:03.570Z,-2.09
2022-12-12T17:39:31.839Z,-2.21
2022-12-12T17:42:00.226Z,-2.32
2022-12-12T17:44:28.615Z,-2.42
2022-12-12T17:46:56.864Z,-2.52
2022-12-12T17:49:25.181Z,-2.59
2022-12-12T17:51:53.516Z,-2.65
2022-12-12T17:54:21.918Z,-2.71
2022-12-12T17:56:50.181Z,-2.78
2022-12-12T17:59:18.444Z,-2.84
2022-12-12T18:01:53.130Z,-2.89
2022-12-12T18:04:27.662Z,-2.92
2022-12-12T18:06:57.015Z,-2.95
2022-12-12T18:09:26.252Z,-2.98
2022-12-12T18:11:54.570Z,-3.01
2022-12-12T18:14:22.901Z,-3.03
2022-12-12T18:16:53.233Z,-3.05
2022-12-12T18:19:23.832Z,-3.07
2022-12-12T18:22:00.853Z,-3.10
2022-12-12T18:24:30.615Z,-3.11
2022-12-12T18:27:01.252Z,-3.13
2022-12-12T18:29:30.147Z,-3.15
2022-12-12T18:31:58.556Z,-3.16
2022-12-12T18:34:27.064Z,-3.18
2022-12-12T18:36:55.374Z,-3.20
2022-12-12T18:39:23.697Z,-3.24
2022-12-12T18:41:52.364Z,-3.27
2022-12-12T18:44:20.786Z,-3.28
2022-12-12T18:46:51.222Z,-3.28
2022-12-12T18:49:19.635Z,-3.30
2022-12-12T18:51:48.071Z,-3.31
2022-12-12T18:54:16.997Z,-3.33
2022-12-12T18:56:46.873Z,-3.37
2022-12-12T18:59:16.947Z,-3.38
2022-12-12T19:01:45.437Z,-3.40
2022-12-12T19:04:20.914Z,-3.41
2022-12-12T19:06:53.328Z,-3.43
2022-12-12T19:09:22.371Z,-3.42
2022-12-12T19:11:54.267Z,-3.40
2022-12-12T19:14:35.711Z,-3.36
2022-12-12T19:17:09.111Z,-3.34
2022-12-12T19:19:37.468Z,-3.33
2022-12-12T19:22:24.718Z,-3.29
2022-12-12T19:24:53.533Z,-3.29
2022-12-12T19:27:22.519Z,-3.28
2022-12-12T19:29:50.807Z,-3.27
2022-12-12T19:32:19.192Z,-3.28
2022-12-12T19:34:47.490Z,-3.30
2022-12-12T19:37:15.809Z,-3.30
2022-12-12T19:39:44.097Z,-3.32
2022-12-12T19:42:12.426Z,-3.32
2022-12-12T19:44:43.542Z,-3.32
2022-12-12T19:47:13.539Z,-3.35
2022-12-12T19:49:41.914Z,-3.38
2022-12-12T19:52:14.102Z,-3.39
2022-12-12T19:54:43.342Z,-3.38
2022-12-12T19:57:11.657Z,-3.39
2022-12-12T19:59:40.351Z,-3.39
2022-12-12T20:02:10.711Z,-3.40
2022-12-12T20:04:39.686Z,-3.41
2022-12-12T20:07:08.054Z,-3.43
2022-12-12T20:09:36.741Z,-3.43
2022-12-12T20:12:05.721Z,-3.42
2022-12-12T20:14:35.793Z,-3.42
2022-12-12T20:17:05.043Z,-3.43
2022-12-12T20:19:33.501Z,-3.43
2022-12-12T20:22:03.097Z,-3.44
2022-12-12T20:24:34.176Z,-3.46
2022-12-12T20:27:06.486Z,-3.47
2022-12-12T20:29:36.103Z,-3.49
2022-12-12T20:32:04.645Z,-3.50
2022-12-12T20:34:32.967Z,-3.52
2022-12-12T20:37:01.232Z,-3.54
2022-12-12T20:39:29.549Z,-3.57
2022-12-12T20:41:57.939Z,-3.61
2022-12-12T20:44:29.264Z,-3.66
2022-12-12T20:47:00.023Z,-3.70
2022-12-12T20:49:29.610Z,-3.73
2022-12-12T20:51:59.390Z,-3.76
2022-12-12T20:54:29.317Z,-3.79
2022-12-12T20:56:59.498Z,-3.79
2022-12-12T20:59:27.954Z,-3.80
2022-12-12T21:01:56.430Z,-3.81
2022-12-12T21:04:24.903Z,-3.82
2022-12-12T21:06:53.247Z,-3.82
2022-12-12T21:09:26.520Z,-3.82
2022-12-12T21:11:58.344Z,-3.81
2022-12-12T21:14:28.318Z,-3.82
2022-12-12T21:16:57.056Z,-3.84
2022-12-12T21:19:25.342Z,-3.84
2022-12-12T21:21:54.154Z,-3.84
2022-12-12T21:24:23.066Z,-3.86
2022-12-12T21:26:51.576Z,-3.88
2022-12-12T21:29:20.013Z,-3.90
2022-12-12T21:31:52.089Z,-3.92
2022-12-12T21:34:22.689Z,-3.93
2022-12-12T21:36:54.877Z,-3.95
2022-12-12T21:39:27.117Z,-3.99
2022-12-12T21:41:56.618Z,-4.00
2022-12-12T21:44:25.246Z,-4.05
2022-12-12T21:46:53.612Z,-4.09
2022-12-12T21:49:28.155Z,-4.15
2022-12-12T21:51:59.721Z,-4.25
2022-12-12T21:54:29.374Z,-4.35
2022-12-12T21:56:59.453Z,-4.43
2022-12-12T21:59:28.290Z,-4.50
2022-12-12T22:01:59.209Z,-4.58
2022-12-12T22:04:28.251Z,-4.65
2022-12-12T22:07:00.191Z,-4.68
2022-12-12T22:09:28.611Z,-4.73
2022-12-12T22:12:03.289Z,-4.75
2022-12-12T22:14:34.858Z,-4.76
2022-12-12T22:17:05.234Z,-4.76
2022-12-12T22:19:33.490Z,-4.75
2022-12-12T22:22:01.706Z,-4.75
2022-12-12T22:24:30.000Z,-4.74
2022-12-12T22:26:58.488Z,-4.72
2022-12-12T22:29:27.018Z,-4.72
2022-12-12T22:31:55.384Z,-4.73
2022-12-12T22:34:24.723Z,-4.74
2022-12-12T22:36:54.061Z,-4.74
2022-12-12T22:39:27.500Z,-4.72
2022-12-12T22:41:56.735Z,-4.71
2022-12-12T22:44:25.952Z,-4.67
2022-12-12T22:46:55.610Z,-4.65
2022-12-12T22:49:26.294Z,-4.64
2022-12-12T22:51:57.090Z,-4.63
2022-12-12T22:54:25.900Z,-4.63
2022-12-12T22:56:54.277Z,-4.61
2022-12-12T22:59:22.739Z,-4.59
2022-12-12T23:01:51.138Z,-4.58
2022-12-12T23:04:19.613Z,-4.61
2022-12-12T23:06:47.974Z,-4.62
2022-12-12T23:09:22.313Z,-4.63
2022-12-12T23:11:50.558Z,-4.66
2022-12-12T23:14:23.023Z,-4.70
2022-12-12T23:16:52.140Z,-4.74
2022-12-12T23:19:23.613Z,-4.78
2022-12-12T23:21:52.306Z,-4.85
2022-12-12T23:24:20.616Z,-4.87
2022-12-12T23:26:51.930Z,-4.85
2022-12-12T23:29:20.811Z,-4.84
2022-12-12T23:31:50.146Z,-4.82
2022-12-12T23:34:24.300Z,-4.77
2022-12-12T23:36:54.360Z,-4.73
2022-12-12T23:39:24.450Z,-4.69
2022-12-12T23:41:54.054Z,-4.66
2022-12-12T23:44:24.098Z,-4.63
2022-12-12T23:46:52.807Z,-4.60
2022-12-12T23:49:25.999Z,-4.55
2022-12-12T23:52:00.052Z,-4.49
2022-12-12T23:54:35.207Z,-4.46
2022-12-12T23:57:03.610Z,-4.45
2022-12-12T23:59:32.079Z,-4.45
